Time;durP1;ratioP1;P1;durP2;ratioP2;P2;SDS_P1;SDS_P2;PMS_P1;PMS_P2;Temp;Humidity;BMP_temperature;BMP_pressure;BME280_temperature;BME280_humidity;BME280_pressure;Samples;Min_cycle;Max_cycle;Signal;HPM_P1;HPM_P2
2022/03/10 00:01:57;;;;;;;20.98;12.63;;;4.90;91.30;;;;;;5056007;28;20040;-61
2022/03/10 00:04:24;;;;;;;18.27;11.90;;;4.80;91.30;;;;;;5072779;28;20466;-61
2022/03/10 00:06:49;;;;;;;18.30;12.25;;;4.90;91.30;;;;;;5073512;28;20119;-61
2022/03/10 00:09:15;;;;;;;17.27;12.57;;;4.80;91.30;;;;;;5073767;28;20469;-60
2022/03/10 00:11:41;;;;;;;17.85;12.13;;;4.80;91.40;;;;;;5073446;28;20453;-61
2022/03/10 00:14:07;;;;;;;17.27;11.73;;;4.80;91.30;;;;;;5073173;28;20421;-61
2022/03/10 00:16:33;;;;;;;21.80;12.30;;;4.80;91.20;;;;;;5073582;28;20111;-60
2022/03/10 00:18:59;;;;;;;18.65;11.98;;;4.70;91.10;;;;;;5072142;28;20052;-62
2022/03/10 00:21:25;;;;;;;20.13;12.30;;;4.70;91.20;;;;;;5073697;28;20067;-61
2022/03/10 00:23:50;;;;;;;16.30;11.40;;;4.70;91.20;;;;;;5073429;28;20115;-61
2022/03/10 00:26:16;;;;;;;17.73;11.95;;;4.70;91.10;;;;;;5073423;28;20470;-60
2022/03/10 00:28:41;;;;;;;19.17;12.77;;;4.70;91.30;;;;;;5072853;28;20040;-61
2022/03/10 00:31:07;;;;;;;18.45;12.93;;;4.70;91.20;;;;;;5074512;28;20075;-61
2022/03/10 00:33:33;;;;;;;17.75;12.20;;;4.60;91.30;;;;;;5076946;28;20119;-61
2022/03/10 00:35:58;;;;;;;18.98;12.05;;;4.60;91.30;;;;;;5077219;28;20045;-61
2022/03/10 00:38:24;;;;;;;16.45;11.85;;;4.60;91.20;;;;;;5077091;28;20109;-60
2022/03/10 00:40:49;;;;;;;19.30;13.25;;;4.50;91.40;;;;;;5077192;28;20041;-61
2022/03/10 00:43:15;;;;;;;19.45;13.05;;;4.50;91.50;;;;;;5075772;28;20044;-60
2022/03/10 00:45:41;;;;;;;17.52;11.88;;;4.50;92.00;;;;;;5077129;28;20070;-61
2022/03/10 00:48:07;;;;;;;21.05;13.00;;;4.50;91.80;;;;;;5076631;28;20033;-60
2022/03/10 00:50:33;;;;;;;18.83;12.80;;;4.50;91.60;;;;;;5077040;28;20047;-61
2022/03/10 00:53:01;;;;;;;17.05;11.70;;;4.50;91.60;;;;;;5076598;28;20419;-62
2022/03/10 00:55:27;;;;;;;17.90;12.70;;;4.40;91.70;;;;;;5076668;28;20353;-60
2022/03/10 00:57:53;;;;;;;18.77;11.93;;;4.40;91.90;;;;;;5076407;28;20097;-61
2022/03/10 01:00:19;;;;;;;17.13;12.25;;;4.40;92.10;;;;;;5076778;28;20178;-61
2022/03/10 01:02:45;;;;;;;19.08;12.02;;;4.40;92.10;;;;;;5076651;28;20373;-60
2022/03/10 01:05:11;;;;;;;19.20;13.05;;;4.40;92.20;;;;;;5075686;28;20064;-60
2022/03/10 01:07:37;;;;;;;19.08;13.10;;;4.30;92.70;;;;;;5076428;28;20125;-60
2022/03/10 01:10:05;;;;;;;17.65;12.68;;;4.30;92.90;;;;;;5076649;28;20036;-60
2022/03/10 01:12:31;;;;;;;15.82;12.20;;;4.20;92.90;;;;;;5076589;28;20062;-61
2022/03/10 01:14:57;;;;;;;20.70;13.52;;;4.20;93.00;;;;;;5076396;28;20037;-60
2022/03/10 01:17:22;;;;;;;19.23;13.13;;;4.20;93.20;;;;;;5076269;28;20037;-60
2022/03/10 01:19:48;;;;;;;21.00;12.90;;;4.10;93.20;;;;;;5075994;28;20465;-61
2022/03/10 01:22:15;;;;;;;21.33;13.23;;;4.10;93.20;;;;;;5076404;28;20048;-61
2022/03/10 01:24:41;;;;;;;18.95;12.40;;;4.10;93.20;;;;;;5076243;28;20036;-60
2022/03/10 01:27:08;;;;;;;20.95;12.85;;;4.10;93.00;;;;;;5076067;28;20076;-61
2022/03/10 01:29:34;;;;;;;18.88;12.32;;;4.10;92.90;;;;;;5076331;28;20032;-60
2022/03/10 01:31:59;;;;;;;18.60;12.38;;;4.20;92.50;;;;;;5076126;28;20048;-60
2022/03/10 01:34:25;;;;;;;16.83;12.45;;;4.20;92.20;;;;;;5076191;28;20040;-61
2022/03/10 01:36:51;;;;;;;20.23;13.07;;;4.20;92.10;;;;;;5075045;28;20381;-61
2022/03/10 01:39:17;;;;;;;20.30;13.40;;;4.20;91.80;;;;;;5076146;28;20055;-60
2022/03/10 01:41:43;;;;;;;18.30;11.90;;;4.20;91.80;;;;;;5076131;28;20037;-61
2022/03/10 01:44:10;;;;;;;19.02;13.18;;;4.20;91.70;;;;;;5074985;28;20062;-60
2022/03/10 01:46:37;;;;;;;18.20;12.30;;;4.20;91.50;;;;;;5075110;28;20365;-60
2022/03/10 01:49:03;;;;;;;18.88;13.13;;;4.20;91.40;;;;;;5075887;28;20097;-60
2022/03/10 01:51:30;;;;;;;20.92;13.02;;;4.20;91.30;;;;;;5075964;28;20036;-61
2022/03/10 01:53:56;;;;;;;19.35;13.32;;;4.20;91.30;;;;;;5075651;28;20052;-60
2022/03/10 01:56:22;;;;;;;19.40;12.95;;;4.10;91.40;;;;;;5076037;28;20044;-61
2022/03/10 01:58:50;;;;;;;18.95;13.27;;;4.10;91.50;;;;;;5075484;28;20072;-61
2022/03/10 02:01:17;;;;;;;22.13;14.40;;;4.10;91.60;;;;;;5075630;28;20044;-61
2022/03/10 02:03:43;;;;;;;20.20;13.10;;;4.00;91.50;;;;;;5075152;28;20036;-61
2022/03/10 02:06:10;;;;;;;18.00;13.50;;;4.10;91.40;;;;;;5075340;28;20048;-61
2022/03/10 02:11:21;;;;;;;20.15;13.75;;;4.00;91.70;;;;;;5075584;28;20049;-61
2022/03/10 02:13:46;;;;;;;18.95;13.25;;;4.00;91.60;;;;;;5074124;28;20147;-61
2022/03/10 02:18:58;;;;;;;21.10;14.10;;;4.00;91.60;;;;;;5075115;28;20061;-61
2022/03/10 02:21:25;;;;;;;19.15;13.85;;;4.00;91.60;;;;;;5075543;28;20055;-60
2022/03/10 02:23:50;;;;;;;21.75;13.68;;;4.00;91.60;;;;;;5075091;28;20449;-61
2022/03/10 02:26:16;;;;;;;17.27;13.25;;;3.90;91.80;;;;;;5075106;28;20036;-61
2022/03/10 02:28:42;;;;;;;19.98;14.00;;;3.80;91.90;;;;;;5074565;28;20028;-62
2022/03/10 02:31:09;;;;;;;19.27;12.35;;;3.80;92.10;;;;;;5074814;28;20040;-60
2022/03/10 02:33:35;;;;;;;18.48;13.40;;;3.80;92.30;;;;;;5074851;28;20044;-60
2022/03/10 02:36:01;;;;;;;21.30;13.60;;;3.80;92.20;;;;;;5073793;28;20040;-60
2022/03/10 02:38:27;;;;;;;20.55;14.07;;;3.70;92.30;;;;;;5074754;28;20055;-61
2022/03/10 02:40:53;;;;;;;18.20;13.25;;;3.70;92.20;;;;;;5075142;28;20040;-60
2022/03/10 02:43:20;;;;;;;19.70;13.82;;;3.70;92.30;;;;;;5074180;28;20113;-61
2022/03/10 02:45:47;;;;;;;22.15;13.77;;;3.70;92.20;;;;;;5074978;28;20044;-61
2022/03/10 02:48:13;;;;;;;19.48;14.27;;;3.70;92.50;;;;;;5074375;28;20036;-61
2022/03/10 02:50:39;;;;;;;19.45;14.10;;;3.60;92.60;;;;;;5074743;28;20061;-60
2022/03/10 02:53:05;;;;;;;21.30;13.60;;;3.50;92.70;;;;;;5074592;28;20044;-61
2022/03/10 02:55:32;;;;;;;21.33;13.45;;;3.50;92.90;;;;;;5074569;28;20047;-62
2022/03/10 02:57:58;;;;;;;20.23;12.85;;;3.50;92.90;;;;;;5074291;28;20040;-60
2022/03/10 03:00:23;;;;;;;19.08;13.55;;;3.50;92.90;;;;;;5074635;28;20051;-60
2022/03/10 03:02:49;;;;;;;19.67;13.80;;;3.50;93.00;;;;;;5074401;28;20041;-60
2022/03/10 03:05:16;;;;;;;18.23;13.35;;;3.40;93.10;;;;;;5074074;28;20033;-60
2022/03/10 03:07:43;;;;;;;19.33;13.45;;;3.40;93.20;;;;;;5074144;28;20044;-61
2022/03/10 03:10:09;;;;;;;21.02;14.07;;;3.40;93.30;;;;;;5074092;28;20048;-61
2022/03/10 03:12:46;;;;;;;17.83;13.32;;;3.40;93.40;;;;;;5073868;28;20433;-60
2022/03/10 03:15:11;;;;;;;19.77;13.43;;;3.40;93.50;;;;;;5073988;28;20033;-60
2022/03/10 03:17:37;;;;;;;20.38;13.43;;;3.40;93.40;;;;;;5073723;28;20143;-61
2022/03/10 03:20:04;;;;;;;20.30;13.60;;;3.40;93.50;;;;;;5073641;28;20052;-61
2022/03/10 03:22:31;;;;;;;18.77;13.95;;;3.30;93.60;;;;;;5073983;28;20466;-61
2022/03/10 03:24:57;;;;;;;20.17;13.10;;;3.30;93.60;;;;;;5056436;28;20132;-60
2022/03/10 03:27:23;;;;;;;22.42;14.20;;;3.30;93.50;;;;;;5073723;28;20119;-61
2022/03/10 03:29:49;;;;;;;17.55;13.02;;;3.40;93.50;;;;;;5074185;28;20047;-61
2022/03/10 03:32:15;;;;;;;21.05;13.65;;;3.40;93.40;;;;;;5074029;28;20532;-61
2022/03/10 03:34:40;;;;;;;19.67;13.98;;;3.40;93.50;;;;;;5073916;28;20396;-61
2022/03/10 03:37:06;;;;;;;21.35;13.40;;;3.30;93.60;;;;;;5073344;28;20040;-61
2022/03/10 03:39:32;;;;;;;22.08;13.85;;;3.30;93.70;;;;;;5073718;28;20087;-60
2022/03/10 03:41:58;;;;;;;19.63;13.23;;;3.30;93.80;;;;;;5074062;28;20041;-60
2022/03/10 03:44:23;;;;;;;19.33;13.63;;;3.20;93.80;;;;;;5073684;28;20507;-61
2022/03/10 03:46:49;;;;;;;19.13;13.68;;;3.20;93.90;;;;;;5073457;28;20123;-60
2022/03/10 03:49:15;;;;;;;18.70;13.98;;;3.20;93.90;;;;;;5074005;28;20040;-60
2022/03/10 03:51:40;;;;;;;20.33;13.45;;;3.20;94.10;;;;;;5073971;28;20039;-60
2022/03/10 03:54:07;;;;;;;20.35;14.10;;;3.20;94.10;;;;;;5072474;28;20121;-61
2022/03/10 03:56:39;;;;;;;19.40;13.48;;;3.20;94.20;;;;;;5073620;28;20068;-61
2022/03/10 03:59:06;;;;;;;18.88;13.88;;;3.20;94.40;;;;;;5073934;28;20040;-60
2022/03/10 04:01:31;;;;;;;22.50;14.05;;;3.20;94.50;;;;;;5073613;28;20044;-61
2022/03/10 04:03:57;;;;;;;21.15;14.02;;;3.10;94.40;;;;;;5073370;28;20063;-61
2022/03/10 04:06:23;;;;;;;19.17;14.57;;;3.10;94.50;;;;;;5075202;28;20075;-61
2022/03/10 04:08:48;;;;;;;21.63;13.93;;;3.10;94.30;;;;;;5077924;28;20036;-61
2022/03/10 04:11:16;;;;;;;19.63;14.00;;;3.10;94.50;;;;;;5077808;28;20128;-61
2022/03/10 04:13:41;;;;;;;19.17;13.48;;;3.10;94.50;;;;;;5077589;28;20033;-61
2022/03/10 04:16:07;;;;;;;20.50;13.82;;;3.00;94.40;;;;;;5077683;28;20097;-61
2022/03/10 04:18:33;;;;;;;20.30;14.38;;;3.00;94.40;;;;;;5077144;28;20041;-62
2022/03/10 04:20:59;;;;;;;19.65;14.30;;;3.00;94.50;;;;;;5077097;28;20049;-61
2022/03/10 04:23:28;;;;;;;19.17;13.93;;;3.00;94.60;;;;;;5077390;28;20418;-61
2022/03/10 04:25:54;;;;;;;21.30;14.77;;;3.00;94.70;;;;;;5076476;28;20419;-61
2022/03/10 04:28:20;;;;;;;22.10;15.05;;;3.00;94.80;;;;;;5076930;28;20111;-61
2022/03/10 04:30:45;;;;;;;23.65;14.52;;;2.90;94.90;;;;;;5077259;28;20190;-61
2022/03/10 04:33:11;;;;;;;20.80;13.63;;;2.90;95.10;;;;;;5076773;28;20093;-61
2022/03/10 04:35:38;;;;;;;22.13;14.73;;;2.80;95.20;;;;;;5077221;28;20052;-62
2022/03/10 04:38:03;;;;;;;22.85;14.05;;;2.80;95.20;;;;;;5076162;28;20044;-62
2022/03/10 04:40:29;;;;;;;19.23;13.57;;;2.80;95.30;;;;;;5077303;28;20043;-61
2022/03/10 04:42:55;;;;;;;21.05;13.50;;;2.80;95.30;;;;;;5077305;28;20105;-61
2022/03/10 04:45:21;;;;;;;20.17;14.85;;;2.80;95.40;;;;;;5077112;28;20376;-61
2022/03/10 04:47:47;;;;;;;20.50;14.30;;;2.80;95.30;;;;;;5076644;28;20036;-61
2022/03/10 04:50:16;;;;;;;20.80;14.30;;;2.80;95.30;;;;;;5077078;28;20043;-61
2022/03/10 04:52:42;;;;;;;20.85;14.07;;;2.80;95.40;;;;;;5076801;28;20505;-61
2022/03/10 04:55:10;;;;;;;17.95;13.20;;;2.80;95.40;;;;;;5076747;28;20128;-61
2022/03/10 04:57:36;;;;;;;21.40;15.07;;;2.80;95.60;;;;;;5076662;28;20036;-61
2022/03/10 05:00:10;;;;;;;23.13;14.82;;;2.80;95.70;;;;;;5076598;28;20089;-61
2022/03/10 05:02:36;;;;;;;21.27;14.68;;;2.80;95.70;;;;;;5076748;28;20102;-61
2022/03/10 05:05:03;;;;;;;19.30;14.02;;;2.80;95.70;;;;;;5076675;28;20024;-61
2022/03/10 05:07:28;;;;;;;21.90;14.55;;;2.70;95.80;;;;;;5076551;28;20147;-61
2022/03/10 05:09:54;;;;;;;19.80;13.77;;;2.80;95.90;;;;;;5076683;28;20315;-61
2022/03/10 05:12:20;;;;;;;21.02;15.15;;;2.70;95.80;;;;;;5076612;28;20090;-61
2022/03/10 05:14:46;;;;;;;19.30;13.50;;;2.70;96.20;;;;;;5076215;28;20044;-61
2022/03/10 05:17:12;;;;;;;21.02;14.20;;;2.70;96.10;;;;;;5075235;28;20040;-61
2022/03/10 05:19:37;;;;;;;20.80;14.70;;;2.70;96.20;;;;;;5075861;28;20064;-61
2022/03/10 05:22:03;;;;;;;22.77;15.13;;;2.70;96.20;;;;;;5076381;28;20076;-61
2022/03/10 05:24:29;;;;;;;22.27;15.20;;;2.70;96.20;;;;;;5076216;28;20094;-61
2022/03/10 05:26:54;;;;;;;23.10;15.57;;;2.60;96.40;;;;;;5076016;28;20119;-61
2022/03/10 05:29:20;;;;;;;20.58;14.88;;;2.60;96.50;;;;;;5076048;28;20097;-61
2022/03/10 05:31:46;;;;;;;24.10;14.75;;;2.60;96.50;;;;;;5076255;28;20041;-62
2022/03/10 05:34:11;;;;;;;20.15;14.60;;;2.60;96.70;;;;;;5076044;28;20110;-61
2022/03/10 05:36:37;;;;;;;20.65;15.05;;;2.60;96.60;;;;;;5075909;28;20076;-61
2022/03/10 05:39:04;;;;;;;22.15;14.35;;;2.60;96.70;;;;;;5076252;28;20040;-61
2022/03/10 05:41:32;;;;;;;21.63;15.45;;;2.60;96.70;;;;;;5076071;28;20048;-61
2022/03/10 05:43:58;;;;;;;23.92;15.20;;;2.60;96.70;;;;;;5075648;28;20072;-60
2022/03/10 05:46:23;;;;;;;20.58;14.98;;;2.70;96.60;;;;;;5074500;28;20090;-60
2022/03/10 05:48:49;;;;;;;22.10;14.55;;;2.60;96.80;;;;;;5075793;28;20041;-61
2022/03/10 05:51:14;;;;;;;23.05;14.55;;;2.60;96.90;;;;;;5075897;28;20116;-61
2022/03/10 05:53:40;;;;;;;21.45;14.10;;;2.60;96.90;;;;;;5075646;28;20032;-60
2022/03/10 05:56:06;;;;;;;19.05;13.63;;;2.60;96.80;;;;;;5065361;28;20083;-60
2022/03/10 05:58:31;;;;;;;19.70;14.05;;;2.50;96.90;;;;;;5053917;28;20128;-60
2022/03/10 06:00:57;;;;;;;23.02;14.85;;;2.60;96.90;;;;;;5054822;28;20036;-60
2022/03/10 06:03:23;;;;;;;19.52;14.00;;;2.60;97.10;;;;;;5056022;28;20056;-60
2022/03/10 06:05:49;;;;;;;20.30;14.52;;;2.60;96.80;;;;;;5056576;28;20095;-61
2022/03/10 06:08:14;;;;;;;22.08;14.32;;;2.60;96.90;;;;;;5054439;28;20513;-60
2022/03/10 06:10:40;;;;;;;22.60;14.68;;;2.60;97.00;;;;;;5053829;28;20041;-61
2022/03/10 06:13:06;;;;;;;22.00;14.10;;;2.60;97.10;;;;;;5055217;28;20370;-61
2022/03/10 06:15:31;;;;;;;23.52;15.18;;;2.60;96.90;;;;;;5060348;28;20033;-60
2022/03/10 06:17:57;;;;;;;21.45;14.68;;;2.70;96.80;;;;;;5055045;28;20052;-61
2022/03/10 06:20:23;;;;;;;19.90;14.05;;;2.70;96.80;;;;;;5054276;28;20072;-60
2022/03/10 06:22:48;;;;;;;22.10;14.63;;;2.70;96.70;;;;;;5054600;28;20116;-60
2022/03/10 06:25:14;;;;;;;20.75;14.75;;;2.70;96.60;;;;;;5071279;28;20072;-60
2022/03/10 06:27:39;;;;;;;18.83;13.98;;;2.70;96.60;;;;;;5074511;28;20068;-61
2022/03/10 06:30:06;;;;;;;27.88;14.60;;;2.80;96.70;;;;;;5074723;28;20052;-60
2022/03/10 06:32:31;;;;;;;19.85;14.23;;;2.80;96.60;;;;;;5074989;28;20036;-60
2022/03/10 06:34:59;;;;;;;19.35;14.52;;;2.90;96.60;;;;;;5074712;28;20047;-61
2022/03/10 06:37:25;;;;;;;19.88;14.15;;;3.10;96.20;;;;;;5074327;28;20383;-61
2022/03/10 06:39:52;;;;;;;19.58;13.93;;;3.30;95.70;;;;;;5073827;28;20048;-61
2022/03/10 06:42:19;;;;;;;20.02;13.95;;;3.40;95.50;;;;;;5074590;28;20040;-61
2022/03/10 06:44:45;;;;;;;22.10;13.98;;;3.40;95.30;;;;;;5074532;28;20075;-62
2022/03/10 06:47:12;;;;;;;19.35;13.50;;;3.40;95.40;;;;;;5074284;28;20032;-62
2022/03/10 06:49:39;;;;;;;18.20;13.80;;;3.50;95.20;;;;;;5060798;28;20092;-61
2022/03/10 06:52:05;;;;;;;21.48;13.68;;;3.50;95.30;;;;;;5054695;28;20045;-61
2022/03/10 06:54:31;;;;;;;19.00;13.10;;;3.40;95.50;;;;;;5064533;28;20044;-61
2022/03/10 06:56:57;;;;;;;18.13;13.15;;;3.50;95.40;;;;;;5074315;28;20123;-61
2022/03/10 06:59:22;;;;;;;19.15;13.02;;;3.60;95.30;;;;;;5074657;28;20036;-60
2022/03/10 07:01:48;;;;;;;21.05;14.43;;;3.70;95.20;;;;;;5074146;28;20056;-61
2022/03/10 07:04:14;;;;;;;19.65;14.02;;;3.70;95.10;;;;;;5074171;28;20037;-61
2022/03/10 07:06:40;;;;;;;20.30;14.32;;;3.80;95.00;;;;;;5073051;28;20106;-62
2022/03/10 07:09:05;;;;;;;20.23;14.30;;;3.90;95.00;;;;;;5073424;28;20101;-60
2022/03/10 07:11:31;;;;;;;19.33;13.40;;;3.90;95.00;;;;;;5074127;28;20032;-61
2022/03/10 07:13:56;;;;;;;22.15;13.35;;;4.00;94.80;;;;;;5074081;28;20040;-61
2022/03/10 07:16:22;;;;;;;19.60;13.75;;;4.00;95.00;;;;;;5073932;28;20522;-60
2022/03/10 07:18:50;;;;;;;24.17;13.85;;;4.10;94.70;;;;;;5073903;28;20047;-62
2022/03/10 07:21:20;;;;;;;20.50;13.15;;;4.20;94.50;;;;;;5074260;28;20048;-61
2022/03/10 07:23:47;;;;;;;22.02;13.73;;;4.20;94.50;;;;;;5074271;28;20047;-61
2022/03/10 07:26:13;;;;;;;20.40;13.98;;;4.30;94.60;;;;;;5073631;28;20366;-61
2022/03/10 07:28:40;;;;;;;19.38;13.55;;;4.40;94.60;;;;;;5074287;28;20036;-61
2022/03/10 07:31:05;;;;;;;18.25;13.45;;;4.50;94.40;;;;;;5074036;28;20048;-59
2022/03/10 07:33:31;;;;;;;17.65;12.48;;;4.60;94.40;;;;;;5071085;28;20131;-62
2022/03/10 07:35:57;;;;;;;21.17;13.60;;;4.70;94.20;;;;;;5053477;28;20119;-61
2022/03/10 07:38:22;;;;;;;17.23;12.57;;;4.80;93.90;;;;;;5053590;28;20033;-61
2022/03/10 07:40:48;;;;;;;20.10;13.93;;;4.90;94.00;;;;;;5051830;28;20099;-61
2022/03/10 07:43:15;;;;;;;21.95;13.82;;;5.00;93.70;;;;;;5053293;28;20482;-61
2022/03/10 07:45:40;;;;;;;17.13;12.27;;;5.10;93.70;;;;;;5072812;28;20033;-60
2022/03/10 07:48:06;;;;;;;18.65;13.02;;;5.20;93.60;;;;;;5072277;28;20118;-61
2022/03/10 07:50:32;;;;;;;18.95;12.02;;;5.20;93.30;;;;;;5073689;28;20070;-60
2022/03/10 07:52:58;;;;;;;22.15;13.73;;;5.40;93.20;;;;;;5073849;28;20040;-60
2022/03/10 07:55:23;;;;;;;17.38;12.52;;;5.40;93.50;;;;;;5063848;28;20069;-61
2022/03/10 07:57:49;;;;;;;19.05;13.48;;;5.50;93.40;;;;;;5052235;28;20103;-61
2022/03/10 08:00:15;;;;;;;17.20;12.75;;;5.70;93.20;;;;;;5053667;28;20040;-61
2022/03/10 08:02:41;;;;;;;19.98;11.63;;;5.80;92.90;;;;;;5053648;28;20064;-61
2022/03/10 08:05:08;;;;;;;20.10;13.13;;;5.90;92.60;;;;;;5067976;28;20209;-60
2022/03/10 08:07:34;;;;;;;20.02;13.40;;;5.90;92.60;;;;;;5073170;28;20082;-60
2022/03/10 08:10:04;;;;;;;18.48;13.05;;;6.00;92.60;;;;;;5073740;28;20079;-61
2022/03/10 08:12:31;;;;;;;18.80;12.65;;;6.20;92.40;;;;;;5073496;28;20202;-61
2022/03/10 08:14:57;;;;;;;20.02;13.20;;;6.30;92.40;;;;;;5072152;28;20119;-61
2022/03/10 08:17:23;;;;;;;17.90;12.85;;;6.40;92.10;;;;;;5073034;28;20492;-61
2022/03/10 08:19:49;;;;;;;17.85;12.25;;;6.50;92.10;;;;;;5073202;28;20422;-61
2022/03/10 08:22:16;;;;;;;21.30;13.05;;;6.60;92.30;;;;;;5073242;28;20162;-61
2022/03/10 08:24:43;;;;;;;18.38;12.15;;;6.70;92.20;;;;;;5072066;28;20047;-61
2022/03/10 08:27:09;;;;;;;18.63;12.15;;;6.80;91.90;;;;;;5072875;28;20369;-61
2022/03/10 08:29:34;;;;;;;18.00;12.68;;;6.90;91.90;;;;;;5073541;28;20051;-61
2022/03/10 08:32:00;;;;;;;18.98;12.27;;;7.10;91.90;;;;;;5053582;28;20119;-61
2022/03/10 08:34:25;;;;;;;17.80;11.82;;;7.20;91.60;;;;;;5061650;28;20369;-60
2022/03/10 08:36:51;;;;;;;19.05;12.52;;;7.40;91.60;;;;;;5073231;28;20040;-61
2022/03/10 08:39:17;;;;;;;20.08;13.00;;;7.50;91.60;;;;;;5073025;28;20048;-61
2022/03/10 08:41:44;;;;;;;23.85;13.13;;;7.60;91.40;;;;;;5073129;28;20045;-61
2022/03/10 08:44:12;;;;;;;18.48;12.65;;;7.80;91.00;;;;;;5073126;28;20112;-61
2022/03/10 08:46:38;;;;;;;20.10;13.23;;;7.90;90.70;;;;;;5072409;28;20043;-61
2022/03/10 08:49:04;;;;;;;16.25;12.10;;;8.00;90.20;;;;;;5072981;28;20032;-61
2022/03/10 08:51:29;;;;;;;18.02;12.45;;;8.20;90.00;;;;;;5072797;28;20120;-61
2022/03/10 08:53:55;;;;;;;18.48;12.07;;;8.30;89.90;;;;;;5076431;28;20044;-62
2022/03/10 08:56:21;;;;;;;16.73;12.15;;;8.40;90.00;;;;;;5076318;28;20044;-61
2022/03/10 08:58:46;;;;;;;20.38;13.52;;;8.50;90.00;;;;;;5076857;28;20145;-62
2022/03/10 09:01:12;;;;;;;19.05;12.18;;;8.60;89.20;;;;;;5076321;28;20135;-61
2022/03/10 09:03:38;;;;;;;16.63;11.85;;;8.70;90.10;;;;;;5075721;28;20040;-60
2022/03/10 09:06:04;;;;;;;19.35;12.85;;;8.90;89.30;;;;;;5076083;28;20593;-62
2022/03/10 09:08:30;;;;;;;20.13;13.07;;;9.00;88.60;;;;;;5076290;28;20029;-61
2022/03/10 09:10:56;;;;;;;20.83;12.82;;;9.20;86.40;;;;;;5076625;28;20043;-60
2022/03/10 09:13:22;;;;;;;19.92;12.93;;;9.30;85.30;;;;;;5075717;28;20090;-61
2022/03/10 09:15:48;;;;;;;19.13;12.88;;;9.40;84.40;;;;;;5074883;28;20382;-62
2022/03/10 09:18:14;;;;;;;19.65;12.52;;;9.50;84.60;;;;;;5076126;28;20473;-60
2022/03/10 09:20:39;;;;;;;18.00;12.25;;;9.60;83.70;;;;;;5074982;28;20048;-61
2022/03/10 09:23:05;;;;;;;18.88;12.80;;;9.70;83.70;;;;;;5076310;28;20110;-61
2022/03/10 09:25:31;;;;;;;21.33;13.65;;;9.80;82.60;;;;;;5075660;28;20086;-61
2022/03/10 09:27:56;;;;;;;19.23;13.43;;;9.90;81.40;;;;;;5075819;28;20040;-61
2022/03/10 09:30:22;;;;;;;18.13;13.13;;;10.00;82.20;;;;;;5076226;28;20032;-61
2022/03/10 09:32:48;;;;;;;20.27;13.32;;;10.10;80.40;;;;;;5065248;28;20504;-62
2022/03/10 09:35:16;;;;;;;18.20;13.25;;;10.10;80.50;;;;;;5070549;28;20090;-62
2022/03/10 09:37:42;;;;;;;17.33;13.23;;;10.20;79.90;;;;;;5075758;28;20040;-61
2022/03/10 09:40:09;;;;;;;20.05;12.93;;;10.30;80.80;;;;;;5075835;28;20059;-61
2022/03/10 09:42:36;;;;;;;20.40;13.63;;;10.40;79.70;;;;;;5075763;28;20040;-61
2022/03/10 09:45:10;;;;;;;17.95;12.75;;;10.50;78.50;;;;;;5075852;28;20036;-61
2022/03/10 09:47:40;;;;;;;21.73;14.00;;;10.60;78.30;;;;;;5075093;28;20084;-61
2022/03/10 09:50:11;;;;;;;22.05;13.55;;;10.60;78.00;;;;;;5074668;28;20127;-62
2022/03/10 09:52:38;;;;;;;19.70;13.52;;;10.80;76.30;;;;;;5075844;28;20052;-62
2022/03/10 09:55:05;;;;;;;22.67;14.65;;;10.90;76.10;;;;;;5075588;28;20044;-61
2022/03/10 09:57:33;;;;;;;20.13;13.95;;;10.80;76.00;;;;;;5075424;28;20115;-61
2022/03/10 09:59:59;;;;;;;21.38;13.95;;;10.90;76.10;;;;;;5075417;28;20044;-61
2022/03/10 10:02:27;;;;;;;19.77;14.13;;;11.00;74.80;;;;;;5075286;28;20132;-61
2022/03/10 10:04:53;;;;;;;20.77;13.60;;;11.20;75.70;;;;;;5074862;28;20036;-61
2022/03/10 10:07:21;;;;;;;21.17;14.15;;;11.20;75.80;;;;;;5075219;28;20040;-61
2022/03/10 10:09:56;;;;;;;20.98;13.88;;;11.20;74.10;;;;;;5075507;28;20087;-62
2022/03/10 10:12:29;;;;;;;20.00;13.30;;;11.30;74.00;;;;;;5075277;28;20385;-61
2022/03/10 10:15:00;;;;;;;27.97;13.70;;;11.30;73.60;;;;;;5074859;28;20048;-61
2022/03/10 10:17:30;;;;;;;18.00;13.85;;;11.40;74.10;;;;;;5074627;28;20044;-61
2022/03/10 10:19:58;;;;;;;28.48;15.20;;;11.40;74.10;;;;;;5074819;28;20063;-61
2022/03/10 10:22:25;;;;;;;20.50;14.30;;;11.60;73.10;;;;;;5075227;28;20059;-61
2022/03/10 10:24:52;;;;;;;19.75;13.60;;;11.70;73.70;;;;;;5074926;28;20036;-61
2022/03/10 10:27:20;;;;;;;20.10;13.90;;;11.70;74.00;;;;;;5073603;28;20111;-63
2022/03/10 10:29:56;;;;;;;20.05;14.40;;;11.80;73.40;;;;;;5075086;28;20161;-61
2022/03/10 10:32:35;;;;;;;19.80;15.00;;;11.90;73.50;;;;;;5075067;28;20036;-61
2022/03/10 10:35:05;;;;;;;21.05;14.43;;;11.90;73.10;;;;;;5065004;28;20037;-61
2022/03/10 10:37:30;;;;;;;21.15;13.80;;;12.00;73.60;;;;;;5053241;28;20151;-61
2022/03/10 10:39:58;;;;;;;19.42;13.40;;;12.10;73.00;;;;;;5054319;28;20120;-61
2022/03/10 10:42:32;;;;;;;20.80;14.73;;;12.10;73.00;;;;;;5061597;28;20040;-61
2022/03/10 10:44:59;;;;;;;20.52;14.27;;;12.20;73.50;;;;;;5073366;28;20064;-61
2022/03/10 10:47:29;;;;;;;23.98;14.80;;;12.30;73.80;;;;;;5073945;28;20390;-62
2022/03/10 10:50:05;;;;;;;20.48;13.98;;;12.50;73.20;;;;;;5073905;28;20048;-61
2022/03/10 10:52:41;;;;;;;24.77;14.98;;;12.50;73.60;;;;;;5074769;28;20068;-62
2022/03/10 10:55:11;;;;;;;23.58;15.32;;;12.60;73.60;;;;;;5074662;28;20067;-62
2022/03/10 10:57:39;;;;;;;19.98;14.52;;;12.70;73.90;;;;;;5071104;28;20474;-61
2022/03/10 11:00:13;;;;;;;21.92;14.57;;;12.80;73.40;;;;;;5054465;28;20369;-61
2022/03/10 11:02:43;;;;;;;21.55;14.63;;;12.90;73.70;;;;;;5053214;28;20183;-62
2022/03/10 11:05:14;;;;;;;20.17;14.50;;;12.90;72.90;;;;;;5067488;28;20039;-62
2022/03/10 11:07:41;;;;;;;23.00;15.48;;;13.00;72.40;;;;;;5073676;28;20032;-61
2022/03/10 11:10:09;;;;;;;22.13;15.02;;;13.00;73.50;;;;;;5073056;28;20045;-62
2022/03/10 11:12:39;;;;;;;23.73;16.15;;;13.10;72.60;;;;;;5074199;28;20059;-62
2022/03/10 11:15:09;;;;;;;25.45;15.32;;;13.20;72.90;;;;;;5072432;28;20053;-63
2022/03/10 11:17:35;;;;;;;23.08;15.23;;;13.30;73.40;;;;;;5073424;28;20028;-61
2022/03/10 11:20:05;;;;;;;22.35;16.27;;;13.40;73.30;;;;;;5073694;28;20056;-61
2022/03/10 11:23:08;;;;;;;24.52;16.63;;;13.50;71.50;;;;;;5073991;28;20045;-61
2022/03/10 11:25:44;;;;;;;26.63;16.02;;;13.50;71.80;;;;;;5073271;28;20051;-61
2022/03/10 11:28:21;;;;;;;25.58;16.65;;;13.50;71.90;;;;;;5074212;28;20037;-62
2022/03/10 11:30:54;;;;;;;25.20;16.20;;;13.60;71.80;;;;;;5074123;28;20361;-62
2022/03/10 11:33:19;;;;;;;22.52;16.00;;;13.70;71.60;;;;;;5072843;28;20377;-61
2022/03/10 11:35:50;;;;;;;25.77;16.73;;;13.80;71.20;;;;;;5072979;28;20044;-62
2022/03/10 11:38:17;;;;;;;26.55;16.58;;;13.80;70.80;;;;;;5074070;28;20143;-61
2022/03/10 11:40:52;;;;;;;22.23;15.35;;;13.80;71.10;;;;;;5073900;28;20037;-62
2022/03/10 11:43:32;;;;;;;26.40;16.67;;;13.90;70.60;;;;;;5059178;28;20462;-62
2022/03/10 11:46:18;;;;;;;23.33;15.88;;;14.00;70.80;;;;;;5072934;28;20111;-62
2022/03/10 11:49:00;;;;;;;25.13;15.65;;;14.00;70.90;;;;;;5073887;28;20032;-62
2022/03/10 11:51:53;;;;;;;24.05;16.45;;;14.10;70.70;;;;;;5073904;28;20430;-62
2022/03/10 11:54:20;;;;;;;28.73;17.30;;;14.20;70.70;;;;;;5072587;28;20036;-63
2022/03/10 11:56:49;;;;;;;21.13;14.85;;;14.20;70.40;;;;;;5072370;28;20064;-62
2022/03/10 11:59:34;;;;;;;25.92;16.05;;;14.20;70.40;;;;;;5066493;28;20044;-61
2022/03/10 12:02:02;;;;;;;29.23;16.48;;;14.20;69.60;;;;;;5052672;28;20094;-61
2022/03/10 12:04:35;;;;;;;24.00;15.50;;;14.20;70.30;;;;;;5055271;28;20037;-62
2022/03/10 12:07:02;;;;;;;25.23;15.93;;;14.30;69.30;;;;;;5051873;28;20056;-62
2022/03/10 12:09:33;;;;;;;23.77;15.60;;;14.40;70.40;;;;;;5052124;28;20029;-62
2022/03/10 12:12:13;;;;;;;23.38;16.27;;;14.40;69.70;;;;;;5069460;28;20525;-62
2022/03/10 12:14:39;;;;;;;23.13;15.80;;;14.50;69.80;;;;;;5048072;28;20047;-62
2022/03/10 12:17:05;;;;;;;25.23;16.17;;;14.50;69.30;;;;;;5051635;28;20458;-63
2022/03/10 12:20:08;;;;;;;23.02;15.35;;;14.60;68.80;;;;;;5051792;28;20041;-61
2022/03/10 12:22:35;;;;;;;29.45;16.65;;;14.70;69.00;;;;;;5050912;28;20081;-62
2022/03/10 12:25:20;;;;;;;22.67;14.77;;;14.70;68.60;;;;;;5053518;28;20044;-62
2022/03/10 12:27:49;;;;;;;;;;;14.80;68.60;;;;;;5072913;28;20071;-62
2022/03/10 12:30:21;;;;;;;24.00;14.57;;;14.70;67.80;;;;;;5076929;28;20230;-62
2022/03/10 12:32:52;;;;;;;24.13;14.88;;;14.70;68.10;;;;;;5076064;28;20055;-62
2022/03/10 12:35:24;;;;;;;24.33;14.82;;;14.80;67.70;;;;;;5061313;28;20029;-62
2022/03/10 12:37:50;;;;;;;22.25;14.82;;;14.70;67.80;;;;;;5057374;28;20128;-62
2022/03/10 12:40:25;;;;;;;23.58;15.00;;;14.70;67.70;;;;;;5056071;28;20429;-62
2022/03/10 12:42:52;;;;;;;22.73;15.25;;;14.70;67.50;;;;;;5055980;28;20440;-62